sensor_id;sensor_type;location;lat;lon;timestamp;P1;durP1;ratioP1;P2;durP2;ratioP2
55993;SDS011;67425;52.126;20.638;2023-08-20T00:01:12;25.35;;;18.02;;
55993;SDS011;67425;52.126;20.638;2023-08-20T00:03:43;23.88;;;17.80;;
55993;SDS011;67425;52.126;20.638;2023-08-20T00:06:11;23.00;;;16.50;;
55993;SDS011;67425;52.126;20.638;2023-08-20T00:08:36;21.20;;;17.33;;
55993;SDS011;67425;52.126;20.638;2023-08-20T00:11:02;21.65;;;17.65;;
55993;SDS011;67425;52.126;20.638;2023-08-20T00:13:28;19.38;;;16.85;;
55993;SDS011;67425;52.126;20.638;2023-08-20T00:15:53;31.15;;;18.10;;
55993;SDS011;67425;52.126;20.638;2023-08-20T00:18:19;23.67;;;16.58;;
55993;SDS011;67425;52.126;20.638;2023-08-20T00:20:44;21.88;;;16.73;;
55993;SDS011;67425;52.126;20.638;2023-08-20T00:23:10;20.15;;;16.85;;
55993;SDS011;67425;52.126;20.638;2023-08-20T00:25:36;28.10;;;18.15;;
55993;SDS011;67425;52.126;20.638;2023-08-20T00:28:02;19.88;;;16.98;;
55993;SDS011;67425;52.126;20.638;2023-08-20T00:30:27;25.17;;;16.70;;
55993;SDS011;67425;52.126;20.638;2023-08-20T00:32:53;25.42;;;18.08;;
55993;SDS011;67425;52.126;20.638;2023-08-20T00:35:18;21.20;;;16.40;;
55993;SDS011;67425;52.126;20.638;2023-08-20T00:37:43;22.25;;;17.60;;
55993;SDS011;67425;52.126;20.638;2023-08-20T00:40:10;21.77;;;16.77;;
55993;SDS011;67425;52.126;20.638;2023-08-20T00:42:36;21.65;;;16.27;;
55993;SDS011;67425;52.126;20.638;2023-08-20T00:45:01;24.98;;;18.83;;
55993;SDS011;67425;52.126;20.638;2023-08-20T00:47:28;22.33;;;16.23;;
55993;SDS011;67425;52.126;20.638;2023-08-20T00:49:54;20.02;;;16.95;;
55993;SDS011;67425;52.126;20.638;2023-08-20T00:52:20;27.63;;;17.30;;
55993;SDS011;67425;52.126;20.638;2023-08-20T00:54:45;22.45;;;17.23;;
55993;SDS011;67425;52.126;20.638;2023-08-20T00:57:17;28.58;;;18.13;;
55993;SDS011;67425;52.126;20.638;2023-08-20T00:59:44;21.60;;;16.95;;
55993;SDS011;67425;52.126;20.638;2023-08-20T01:02:16;24.13;;;18.02;;
55993;SDS011;67425;52.126;20.638;2023-08-20T01:04:42;24.92;;;17.00;;
55993;SDS011;67425;52.126;20.638;2023-08-20T01:13:05;22.42;;;17.52;;
55993;SDS011;67425;52.126;20.638;2023-08-20T01:15:32;25.13;;;17.92;;
55993;SDS011;67425;52.126;20.638;2023-08-20T01:17:57;18.80;;;16.13;;
55993;SDS011;67425;52.126;20.638;2023-08-20T01:20:25;29.08;;;18.17;;
55993;SDS011;67425;52.126;20.638;2023-08-20T01:28:34;24.13;;;18.15;;
55993;SDS011;67425;52.126;20.638;2023-08-20T01:31:01;26.85;;;18.92;;
55993;SDS011;67425;52.126;20.638;2023-08-20T01:33:27;26.17;;;18.77;;
55993;SDS011;67425;52.126;20.638;2023-08-20T01:35:54;28.42;;;20.05;;
55993;SDS011;67425;52.126;20.638;2023-08-20T01:38:20;23.35;;;18.90;;
55993;SDS011;67425;52.126;20.638;2023-08-20T01:40:45;24.48;;;18.02;;
55993;SDS011;67425;52.126;20.638;2023-08-20T01:43:11;21.92;;;17.80;;
55993;SDS011;67425;52.126;20.638;2023-08-20T01:45:36;25.38;;;18.85;;
55993;SDS011;67425;52.126;20.638;2023-08-20T01:48:02;21.60;;;17.58;;
55993;SDS011;67425;52.126;20.638;2023-08-20T01:50:28;21.05;;;18.10;;
55993;SDS011;67425;52.126;20.638;2023-08-20T01:52:54;22.70;;;17.77;;
55993;SDS011;67425;52.126;20.638;2023-08-20T01:55:19;19.23;;;16.95;;
55993;SDS011;67425;52.126;20.638;2023-08-20T01:57:45;23.40;;;17.27;;
55993;SDS011;67425;52.126;20.638;2023-08-20T02:00:10;21.45;;;15.88;;
55993;SDS011;67425;52.126;20.638;2023-08-20T02:02:36;21.67;;;17.38;;
55993;SDS011;67425;52.126;20.638;2023-08-20T02:05:02;25.65;;;17.42;;
55993;SDS011;67425;52.126;20.638;2023-08-20T02:07:27;21.50;;;16.02;;
55993;SDS011;67425;52.126;20.638;2023-08-20T02:09:53;24.13;;;17.02;;
55993;SDS011;67425;52.126;20.638;2023-08-20T02:12:18;19.98;;;16.98;;
55993;SDS011;67425;52.126;20.638;2023-08-20T02:14:44;22.05;;;16.13;;
55993;SDS011;67425;52.126;20.638;2023-08-20T02:17:09;26.00;;;17.42;;
55993;SDS011;67425;52.126;20.638;2023-08-20T02:19:35;23.15;;;16.23;;
55993;SDS011;67425;52.126;20.638;2023-08-20T02:22:00;22.05;;;17.35;;
55993;SDS011;67425;52.126;20.638;2023-08-20T02:24:25;22.13;;;16.15;;
55993;SDS011;67425;52.126;20.638;2023-08-20T02:26:51;23.63;;;17.48;;
55993;SDS011;67425;52.126;20.638;2023-08-20T02:29:16;21.95;;;16.77;;
55993;SDS011;67425;52.126;20.638;2023-08-20T02:31:41;26.52;;;17.13;;
55993;SDS011;67425;52.126;20.638;2023-08-20T02:34:07;21.73;;;15.90;;
55993;SDS011;67425;52.126;20.638;2023-08-20T02:36:32;20.65;;;15.45;;
55993;SDS011;67425;52.126;20.638;2023-08-20T02:38:57;21.80;;;16.88;;
55993;SDS011;67425;52.126;20.638;2023-08-20T02:41:22;26.80;;;16.08;;
55993;SDS011;67425;52.126;20.638;2023-08-20T02:43:48;20.13;;;15.63;;
55993;SDS011;67425;52.126;20.638;2023-08-20T02:46:13;17.50;;;15.18;;
55993;SDS011;67425;52.126;20.638;2023-08-20T02:48:39;23.08;;;16.38;;
55993;SDS011;67425;52.126;20.638;2023-08-20T02:51:05;20.77;;;15.90;;
55993;SDS011;67425;52.126;20.638;2023-08-20T02:53:30;22.40;;;16.70;;
55993;SDS011;67425;52.126;20.638;2023-08-20T02:55:55;25.52;;;17.30;;
55993;SDS011;67425;52.126;20.638;2023-08-20T02:58:23;21.00;;;15.38;;
55993;SDS011;67425;52.126;20.638;2023-08-20T03:00:49;20.73;;;16.52;;
55993;SDS011;67425;52.126;20.638;2023-08-20T03:03:14;19.95;;;16.17;;
55993;SDS011;67425;52.126;20.638;2023-08-20T03:05:40;24.60;;;16.77;;
55993;SDS011;67425;52.126;20.638;2023-08-20T03:08:07;23.67;;;15.88;;
55993;SDS011;67425;52.126;20.638;2023-08-20T03:10:32;19.45;;;15.77;;
55993;SDS011;67425;52.126;20.638;2023-08-20T03:12:59;20.48;;;16.48;;
55993;SDS011;67425;52.126;20.638;2023-08-20T03:15:25;22.13;;;16.77;;
55993;SDS011;67425;52.126;20.638;2023-08-20T03:17:51;20.42;;;15.88;;
55993;SDS011;67425;52.126;20.638;2023-08-20T03:20:16;17.17;;;15.35;;
55993;SDS011;67425;52.126;20.638;2023-08-20T03:22:42;21.20;;;15.43;;
55993;SDS011;67425;52.126;20.638;2023-08-20T03:25:07;19.00;;;15.07;;
55993;SDS011;67425;52.126;20.638;2023-08-20T03:27:33;21.08;;;15.18;;
55993;SDS011;67425;52.126;20.638;2023-08-20T03:29:58;21.45;;;15.23;;
55993;SDS011;67425;52.126;20.638;2023-08-20T03:32:23;20.13;;;15.25;;
55993;SDS011;67425;52.126;20.638;2023-08-20T03:34:49;18.05;;;14.60;;
55993;SDS011;67425;52.126;20.638;2023-08-20T03:37:15;19.60;;;15.27;;
55993;SDS011;67425;52.126;20.638;2023-08-20T03:39:41;23.38;;;15.80;;
55993;SDS011;67425;52.126;20.638;2023-08-20T03:42:06;18.38;;;14.55;;
55993;SDS011;67425;52.126;20.638;2023-08-20T03:44:32;17.58;;;15.57;;
55993;SDS011;67425;52.126;20.638;2023-08-20T03:46:57;21.85;;;16.45;;
55993;SDS011;67425;52.126;20.638;2023-08-20T03:49:22;20.77;;;16.08;;
55993;SDS011;67425;52.126;20.638;2023-08-20T03:51:48;20.65;;;15.80;;
55993;SDS011;67425;52.126;20.638;2023-08-20T03:54:13;18.60;;;16.15;;
55993;SDS011;67425;52.126;20.638;2023-08-20T03:56:39;21.45;;;16.33;;
55993;SDS011;67425;52.126;20.638;2023-08-20T03:59:04;19.95;;;15.82;;
55993;SDS011;67425;52.126;20.638;2023-08-20T04:01:30;18.98;;;16.20;;
55993;SDS011;67425;52.126;20.638;2023-08-20T04:03:55;27.83;;;16.27;;
55993;SDS011;67425;52.126;20.638;2023-08-20T04:06:21;24.40;;;16.10;;
55993;SDS011;67425;52.126;20.638;2023-08-20T04:08:46;23.67;;;16.23;;
55993;SDS011;67425;52.126;20.638;2023-08-20T04:11:11;20.95;;;15.82;;
55993;SDS011;67425;52.126;20.638;2023-08-20T04:13:37;22.33;;;15.95;;
55993;SDS011;67425;52.126;20.638;2023-08-20T04:16:02;22.63;;;15.73;;
55993;SDS011;67425;52.126;20.638;2023-08-20T04:18:27;20.05;;;15.57;;
55993;SDS011;67425;52.126;20.638;2023-08-20T04:20:53;21.98;;;15.57;;
55993;SDS011;67425;52.126;20.638;2023-08-20T04:23:19;21.42;;;15.65;;
55993;SDS011;67425;52.126;20.638;2023-08-20T04:25:45;17.60;;;14.88;;
55993;SDS011;67425;52.126;20.638;2023-08-20T04:28:11;21.27;;;16.00;;
55993;SDS011;67425;52.126;20.638;2023-08-20T04:30:37;19.50;;;15.73;;
55993;SDS011;67425;52.126;20.638;2023-08-20T04:33:03;19.10;;;15.73;;
55993;SDS011;67425;52.126;20.638;2023-08-20T04:35:28;21.17;;;16.30;;
55993;SDS011;67425;52.126;20.638;2023-08-20T04:37:54;17.73;;;15.55;;
55993;SDS011;67425;52.126;20.638;2023-08-20T04:40:19;24.45;;;15.30;;
55993;SDS011;67425;52.126;20.638;2023-08-20T04:42:45;18.08;;;16.00;;
55993;SDS011;67425;52.126;20.638;2023-08-20T04:45:10;21.70;;;16.65;;
55993;SDS011;67425;52.126;20.638;2023-08-20T04:47:36;22.45;;;16.05;;
55993;SDS011;67425;52.126;20.638;2023-08-20T04:50:02;21.65;;;16.02;;
55993;SDS011;67425;52.126;20.638;2023-08-20T04:52:27;17.38;;;15.45;;
55993;SDS011;67425;52.126;20.638;2023-08-20T04:54:53;17.15;;;15.00;;
55993;SDS011;67425;52.126;20.638;2023-08-20T04:57:18;18.33;;;15.60;;
55993;SDS011;67425;52.126;20.638;2023-08-20T04:59:43;20.95;;;16.17;;
55993;SDS011;67425;52.126;20.638;2023-08-20T05:02:11;18.15;;;15.65;;
55993;SDS011;67425;52.126;20.638;2023-08-20T05:04:37;20.95;;;15.43;;
55993;SDS011;67425;52.126;20.638;2023-08-20T05:07:03;18.30;;;16.30;;
55993;SDS011;67425;52.126;20.638;2023-08-20T05:09:29;18.00;;;15.77;;
55993;SDS011;67425;52.126;20.638;2023-08-20T05:11:54;25.52;;;18.80;;
55993;SDS011;67425;52.126;20.638;2023-08-20T05:14:19;26.77;;;18.75;;
55993;SDS011;67425;52.126;20.638;2023-08-20T05:16:45;22.40;;;17.83;;
55993;SDS011;67425;52.126;20.638;2023-08-20T05:19:10;24.08;;;17.27;;
55993;SDS011;67425;52.126;20.638;2023-08-20T05:21:35;21.50;;;17.50;;
55993;SDS011;67425;52.126;20.638;2023-08-20T05:24:01;27.88;;;18.27;;
55993;SDS011;67425;52.126;20.638;2023-08-20T05:26:26;21.48;;;16.77;;
55993;SDS011;67425;52.126;20.638;2023-08-20T05:28:52;23.17;;;19.20;;
55993;SDS011;67425;52.126;20.638;2023-08-20T05:31:17;24.90;;;19.98;;
55993;SDS011;67425;52.126;20.638;2023-08-20T05:33:42;23.63;;;18.98;;
55993;SDS011;67425;52.126;20.638;2023-08-20T05:36:07;24.17;;;20.63;;
55993;SDS011;67425;52.126;20.638;2023-08-20T05:38:33;27.63;;;20.02;;
55993;SDS011;67425;52.126;20.638;2023-08-20T05:40:58;25.60;;;19.02;;
55993;SDS011;67425;52.126;20.638;2023-08-20T05:43:23;23.02;;;18.75;;
55993;SDS011;67425;52.126;20.638;2023-08-20T05:45:49;29.67;;;20.58;;
55993;SDS011;67425;52.126;20.638;2023-08-20T05:48:14;27.83;;;18.58;;
55993;SDS011;67425;52.126;20.638;2023-08-20T05:50:39;20.75;;;18.08;;
55993;SDS011;67425;52.126;20.638;2023-08-20T05:53:05;22.92;;;18.27;;
55993;SDS011;67425;52.126;20.638;2023-08-20T05:55:30;29.92;;;19.10;;
55993;SDS011;67425;52.126;20.638;2023-08-20T05:57:55;23.35;;;18.10;;
55993;SDS011;67425;52.126;20.638;2023-08-20T06:00:21;23.83;;;19.35;;
55993;SDS011;67425;52.126;20.638;2023-08-20T06:02:46;24.38;;;17.42;;
55993;SDS011;67425;52.126;20.638;2023-08-20T06:05:11;23.52;;;18.92;;
55993;SDS011;67425;52.126;20.638;2023-08-20T06:07:38;25.23;;;18.52;;
55993;SDS011;67425;52.126;20.638;2023-08-20T06:10:03;25.95;;;18.23;;
55993;SDS011;67425;52.126;20.638;2023-08-20T06:12:29;23.95;;;16.40;;
55993;SDS011;67425;52.126;20.638;2023-08-20T06:14:54;28.08;;;20.77;;
55993;SDS011;67425;52.126;20.638;2023-08-20T06:17:19;45.53;;;22.52;;
55993;SDS011;67425;52.126;20.638;2023-08-20T06:19:45;30.10;;;17.80;;
55993;SDS011;67425;52.126;20.638;2023-08-20T06:22:11;23.80;;;16.48;;
55993;SDS011;67425;52.126;20.638;2023-08-20T06:24:36;22.33;;;16.80;;
55993;SDS011;67425;52.126;20.638;2023-08-20T06:27:01;23.02;;;16.10;;
55993;SDS011;67425;52.126;20.638;2023-08-20T06:29:27;20.42;;;15.70;;
55993;SDS011;67425;52.126;20.638;2023-08-20T06:31:52;16.98;;;13.75;;
55993;SDS011;67425;52.126;20.638;2023-08-20T06:34:17;25.55;;;15.73;;
55993;SDS011;67425;52.126;20.638;2023-08-20T06:36:43;21.63;;;15.02;;
55993;SDS011;67425;52.126;20.638;2023-08-20T06:39:08;19.20;;;14.63;;
55993;SDS011;67425;52.126;20.638;2023-08-20T06:41:34;18.67;;;14.35;;
55993;SDS011;67425;52.126;20.638;2023-08-20T06:44:00;27.58;;;16.48;;
55993;SDS011;67425;52.126;20.638;2023-08-20T06:46:26;17.10;;;14.38;;
55993;SDS011;67425;52.126;20.638;2023-08-20T06:48:51;16.58;;;13.68;;
55993;SDS011;67425;52.126;20.638;2023-08-20T06:51:20;16.05;;;12.77;;
55993;SDS011;67425;52.126;20.638;2023-08-20T06:53:47;19.33;;;13.70;;
55993;SDS011;67425;52.126;20.638;2023-08-20T06:56:12;18.35;;;13.05;;
55993;SDS011;67425;52.126;20.638;2023-08-20T06:58:39;21.95;;;14.02;;
55993;SDS011;67425;52.126;20.638;2023-08-20T07:01:05;16.00;;;12.57;;
55993;SDS011;67425;52.126;20.638;2023-08-20T07:03:43;15.70;;;14.10;;
55993;SDS011;67425;52.126;20.638;2023-08-20T07:06:09;19.15;;;14.02;;
55993;SDS011;67425;52.126;20.638;2023-08-20T07:08:35;19.17;;;13.57;;
55993;SDS011;67425;52.126;20.638;2023-08-20T07:11:01;18.88;;;13.73;;
55993;SDS011;67425;52.126;20.638;2023-08-20T07:13:27;18.27;;;13.32;;
55993;SDS011;67425;52.126;20.638;2023-08-20T07:15:53;14.68;;;12.57;;
55993;SDS011;67425;52.126;20.638;2023-08-20T07:18:19;15.15;;;12.43;;
55993;SDS011;67425;52.126;20.638;2023-08-20T07:20:45;17.85;;;13.00;;
55993;SDS011;67425;52.126;20.638;2023-08-20T07:23:10;14.93;;;13.27;;
55993;SDS011;67425;52.126;20.638;2023-08-20T07:25:39;13.88;;;12.32;;
55993;SDS011;67425;52.126;20.638;2023-08-20T07:28:06;15.30;;;12.98;;
55993;SDS011;67425;52.126;20.638;2023-08-20T07:30:33;14.40;;;11.55;;
55993;SDS011;67425;52.126;20.638;2023-08-20T07:32:59;13.93;;;12.45;;
55993;SDS011;67425;52.126;20.638;2023-08-20T07:35:24;14.63;;;11.50;;
55993;SDS011;67425;52.126;20.638;2023-08-20T07:37:49;14.55;;;12.63;;
55993;SDS011;67425;52.126;20.638;2023-08-20T07:40:15;16.23;;;12.27;;
55993;SDS011;67425;52.126;20.638;2023-08-20T07:42:40;12.90;;;11.10;;
55993;SDS011;67425;52.126;20.638;2023-08-20T07:45:06;12.35;;;11.15;;
55993;SDS011;67425;52.126;20.638;2023-08-20T07:47:32;14.02;;;11.82;;
55993;SDS011;67425;52.126;20.638;2023-08-20T07:49:58;17.05;;;12.63;;
55993;SDS011;67425;52.126;20.638;2023-08-20T07:52:23;15.52;;;12.27;;
55993;SDS011;67425;52.126;20.638;2023-08-20T07:54:49;14.70;;;12.07;;
55993;SDS011;67425;52.126;20.638;2023-08-20T07:57:14;13.05;;;10.55;;
55993;SDS011;67425;52.126;20.638;2023-08-20T07:59:39;12.10;;;11.00;;
55993;SDS011;67425;52.126;20.638;2023-08-20T08:02:05;15.27;;;11.63;;
55993;SDS011;67425;52.126;20.638;2023-08-20T08:04:30;16.90;;;10.70;;
55993;SDS011;67425;52.126;20.638;2023-08-20T08:06:56;12.32;;;10.95;;
55993;SDS011;67425;52.126;20.638;2023-08-20T08:09:26;14.93;;;11.73;;
55993;SDS011;67425;52.126;20.638;2023-08-20T08:11:52;12.65;;;11.40;;
55993;SDS011;67425;52.126;20.638;2023-08-20T08:14:17;18.93;;;11.10;;
55993;SDS011;67425;52.126;20.638;2023-08-20T08:16:44;13.00;;;11.70;;
55993;SDS011;67425;52.126;20.638;2023-08-20T08:19:10;11.60;;;10.50;;
55993;SDS011;67425;52.126;20.638;2023-08-20T08:21:35;12.23;;;10.82;;
55993;SDS011;67425;52.126;20.638;2023-08-20T08:24:01;15.43;;;11.25;;
55993;SDS011;67425;52.126;20.638;2023-08-20T08:26:27;14.43;;;11.73;;
55993;SDS011;67425;52.126;20.638;2023-08-20T08:28:52;18.42;;;10.80;;
55993;SDS011;67425;52.126;20.638;2023-08-20T08:31:18;12.18;;;10.93;;
55993;SDS011;67425;52.126;20.638;2023-08-20T08:33:43;19.35;;;11.00;;
55993;SDS011;67425;52.126;20.638;2023-08-20T08:36:08;14.27;;;10.30;;
55993;SDS011;67425;52.126;20.638;2023-08-20T08:38:34;15.23;;;10.57;;
55993;SDS011;67425;52.126;20.638;2023-08-20T08:41:01;14.32;;;11.90;;
55993;SDS011;67425;52.126;20.638;2023-08-20T08:43:28;21.17;;;12.35;;
55993;SDS011;67425;52.126;20.638;2023-08-20T08:45:56;14.75;;;10.88;;
55993;SDS011;67425;52.126;20.638;2023-08-20T08:48:22;16.45;;;12.45;;
55993;SDS011;67425;52.126;20.638;2023-08-20T08:50:48;19.45;;;11.50;;
55993;SDS011;67425;52.126;20.638;2023-08-20T08:53:15;13.43;;;10.00;;
55993;SDS011;67425;52.126;20.638;2023-08-20T08:55:40;12.27;;;10.98;;
55993;SDS011;67425;52.126;20.638;2023-08-20T08:58:05;12.90;;;9.07;;
55993;SDS011;67425;52.126;20.638;2023-08-20T09:00:31;17.08;;;10.35;;
55993;SDS011;67425;52.126;20.638;2023-08-20T09:02:57;17.23;;;9.50;;
55993;SDS011;67425;52.126;20.638;2023-08-20T09:05:23;13.20;;;10.68;;
55993;SDS011;67425;52.126;20.638;2023-08-20T09:07:50;14.27;;;10.32;;
55993;SDS011;67425;52.126;20.638;2023-08-20T09:10:21;12.13;;;11.02;;
55993;SDS011;67425;52.126;20.638;2023-08-20T09:12:47;13.23;;;11.90;;
55993;SDS011;67425;52.126;20.638;2023-08-20T09:15:13;16.25;;;10.90;;
55993;SDS011;67425;52.126;20.638;2023-08-20T09:17:40;14.73;;;10.25;;
55993;SDS011;67425;52.126;20.638;2023-08-20T09:20:07;13.00;;;10.60;;
55993;SDS011;67425;52.126;20.638;2023-08-20T09:22:33;11.95;;;10.63;;
55993;SDS011;67425;52.126;20.638;2023-08-20T09:24:59;11.38;;;10.18;;
55993;SDS011;67425;52.126;20.638;2023-08-20T09:27:25;12.90;;;10.55;;
55993;SDS011;67425;52.126;20.638;2023-08-20T09:29:51;17.20;;;10.32;;
55993;SDS011;67425;52.126;20.638;2023-08-20T09:32:23;12.00;;;10.35;;
55993;SDS011;67425;52.126;20.638;2023-08-20T09:34:50;12.63;;;10.48;;
55993;SDS011;67425;52.126;20.638;2023-08-20T09:37:17;18.02;;;10.45;;
55993;SDS011;67425;52.126;20.638;2023-08-20T09:39:44;12.45;;;10.65;;
55993;SDS011;67425;52.126;20.638;2023-08-20T09:42:10;13.82;;;12.27;;
55993;SDS011;67425;52.126;20.638;2023-08-20T09:44:37;11.85;;;10.02;;
55993;SDS011;67425;52.126;20.638;2023-08-20T09:47:09;16.38;;;11.10;;
55993;SDS011;67425;52.126;20.638;2023-08-20T09:49:45;11.65;;;10.45;;
55993;SDS011;67425;52.126;20.638;2023-08-20T09:52:14;13.75;;;11.02;;
55993;SDS011;67425;52.126;20.638;2023-08-20T09:57:41;11.77;;;9.52;;
55993;SDS011;67425;52.126;20.638;2023-08-20T10:00:07;10.05;;;8.95;;
55993;SDS011;67425;52.126;20.638;2023-08-20T10:02:35;11.52;;;9.77;;
55993;SDS011;67425;52.126;20.638;2023-08-20T10:05:00;11.40;;;8.80;;
55993;SDS011;67425;52.126;20.638;2023-08-20T10:07:28;10.45;;;9.43;;
55993;SDS011;67425;52.126;20.638;2023-08-20T10:09:57;15.02;;;9.27;;
55993;SDS011;67425;52.126;20.638;2023-08-20T10:12:26;11.77;;;9.02;;
55993;SDS011;67425;52.126;20.638;2023-08-20T10:14:52;10.88;;;9.80;;
55993;SDS011;67425;52.126;20.638;2023-08-20T10:17:17;16.02;;;9.65;;
55993;SDS011;67425;52.126;20.638;2023-08-20T10:19:43;12.68;;;9.45;;
55993;SDS011;67425;52.126;20.638;2023-08-20T10:22:08;12.85;;;10.30;;
55993;SDS011;67425;52.126;20.638;2023-08-20T10:24:41;11.48;;;9.55;;
55993;SDS011;67425;52.126;20.638;2023-08-20T10:27:23;13.60;;;11.07;;
55993;SDS011;67425;52.126;20.638;2023-08-20T10:29:53;13.88;;;11.30;;
55993;SDS011;67425;52.126;20.638;2023-08-20T10:32:20;10.43;;;9.32;;
55993;SDS011;67425;52.126;20.638;2023-08-20T10:34:51;10.77;;;9.48;;
55993;SDS011;67425;52.126;20.638;2023-08-20T10:37:25;11.43;;;9.70;;
55993;SDS011;67425;52.126;20.638;2023-08-20T10:39:55;12.45;;;8.85;;
55993;SDS011;67425;52.126;20.638;2023-08-20T10:44:56;11.73;;;9.68;;
55993;SDS011;67425;52.126;20.638;2023-08-20T10:47:21;12.25;;;9.98;;
55993;SDS011;67425;52.126;20.638;2023-08-20T10:49:50;10.25;;;9.35;;
55993;SDS011;67425;52.126;20.638;2023-08-20T10:52:17;9.98;;;8.85;;
55993;SDS011;67425;52.126;20.638;2023-08-20T10:54:43;9.88;;;8.98;;
55993;SDS011;67425;52.126;20.638;2023-08-20T10:57:09;14.65;;;9.10;;
55993;SDS011;67425;52.126;20.638;2023-08-20T10:59:34;10.55;;;9.05;;
55993;SDS011;67425;52.126;20.638;2023-08-20T11:02:05;10.32;;;9.32;;
55993;SDS011;67425;52.126;20.638;2023-08-20T11:04:37;11.10;;;8.35;;
55993;SDS011;67425;52.126;20.638;2023-08-20T11:07:04;11.52;;;8.82;;
55993;SDS011;67425;52.126;20.638;2023-08-20T11:09:30;10.38;;;9.25;;
55993;SDS011;67425;52.126;20.638;2023-08-20T11:11:56;13.38;;;8.85;;
55993;SDS011;67425;52.126;20.638;2023-08-20T11:14:22;9.18;;;8.27;;
55993;SDS011;67425;52.126;20.638;2023-08-20T11:16:47;12.02;;;8.80;;
55993;SDS011;67425;52.126;20.638;2023-08-20T11:19:14;11.82;;;8.77;;
55993;SDS011;67425;52.126;20.638;2023-08-20T11:21:43;10.52;;;9.32;;
55993;SDS011;67425;52.126;20.638;2023-08-20T11:24:08;9.20;;;8.10;;
55993;SDS011;67425;52.126;20.638;2023-08-20T11:26:34;17.88;;;9.35;;
55993;SDS011;67425;52.126;20.638;2023-08-20T11:29:01;10.88;;;8.95;;
55993;SDS011;67425;52.126;20.638;2023-08-20T11:31:30;14.60;;;9.43;;
55993;SDS011;67425;52.126;20.638;2023-08-20T11:33:56;13.70;;;9.77;;
55993;SDS011;67425;52.126;20.638;2023-08-20T11:36:22;9.30;;;8.50;;
55993;SDS011;67425;52.126;20.638;2023-08-20T11:38:51;9.77;;;8.88;;
55993;SDS011;67425;52.126;20.638;2023-08-20T11:41:17;9.63;;;8.65;;
55993;SDS011;67425;52.126;20.638;2023-08-20T11:43:44;13.32;;;9.88;;
55993;SDS011;67425;52.126;20.638;2023-08-20T11:46:17;17.60;;;9.88;;
55993;SDS011;67425;52.126;20.638;2023-08-20T11:49:04;10.80;;;9.52;;
55993;SDS011;67425;52.126;20.638;2023-08-20T11:54:28;11.15;;;9.13;;
55993;SDS011;67425;52.126;20.638;2023-08-20T11:57:01;10.75;;;9.10;;
55993;SDS011;67425;52.126;20.638;2023-08-20T11:59:30;9.05;;;8.15;;
55993;SDS011;67425;52.126;20.638;2023-08-20T12:01:57;10.80;;;8.45;;
55993;SDS011;67425;52.126;20.638;2023-08-20T12:04:31;9.90;;;8.88;;
55993;SDS011;67425;52.126;20.638;2023-08-20T12:07:09;11.95;;;9.15;;
55993;SDS011;67425;52.126;20.638;2023-08-20T12:09:38;10.82;;;9.73;;
55993;SDS011;67425;52.126;20.638;2023-08-20T12:12:05;10.70;;;9.50;;
55993;SDS011;67425;52.126;20.638;2023-08-20T12:14:32;9.85;;;8.98;;
55993;SDS011;67425;52.126;20.638;2023-08-20T12:16:57;10.30;;;9.30;;
55993;SDS011;67425;52.126;20.638;2023-08-20T12:19:23;12.25;;;9.23;;
55993;SDS011;67425;52.126;20.638;2023-08-20T12:21:49;12.77;;;9.75;;
55993;SDS011;67425;52.126;20.638;2023-08-20T12:24:15;12.98;;;10.10;;
55993;SDS011;67425;52.126;20.638;2023-08-20T12:26:41;10.20;;;9.23;;
55993;SDS011;67425;52.126;20.638;2023-08-20T12:29:07;11.18;;;9.98;;
55993;SDS011;67425;52.126;20.638;2023-08-20T12:31:32;23.48;;;11.73;;
55993;SDS011;67425;52.126;20.638;2023-08-20T12:33:58;19.05;;;11.40;;
55993;SDS011;67425;52.126;20.638;2023-08-20T12:36:24;17.25;;;10.05;;
55993;SDS011;67425;52.126;20.638;2023-08-20T12:38:50;11.45;;;9.98;;
55993;SDS011;67425;52.126;20.638;2023-08-20T12:41:15;11.70;;;10.50;;
55993;SDS011;67425;52.126;20.638;2023-08-20T12:43:40;10.98;;;9.80;;
55993;SDS011;67425;52.126;20.638;2023-08-20T12:46:06;9.57;;;8.27;;
55993;SDS011;67425;52.126;20.638;2023-08-20T12:48:31;10.07;;;8.98;;
55993;SDS011;67425;52.126;20.638;2023-08-20T12:50:57;14.00;;;10.00;;
55993;SDS011;67425;52.126;20.638;2023-08-20T12:53:23;11.65;;;9.82;;
55993;SDS011;67425;52.126;20.638;2023-08-20T12:55:48;9.85;;;8.45;;
55993;SDS011;67425;52.126;20.638;2023-08-20T12:58:13;13.32;;;9.20;;
55993;SDS011;67425;52.126;20.638;2023-08-20T13:00:39;9.23;;;8.27;;
55993;SDS011;67425;52.126;20.638;2023-08-20T13:03:04;11.00;;;8.52;;
55993;SDS011;67425;52.126;20.638;2023-08-20T13:05:30;10.20;;;8.18;;
55993;SDS011;67425;52.126;20.638;2023-08-20T13:07:56;8.60;;;7.80;;
55993;SDS011;67425;52.126;20.638;2023-08-20T13:10:22;8.20;;;7.38;;
55993;SDS011;67425;52.126;20.638;2023-08-20T13:12:48;12.73;;;7.65;;
55993;SDS011;67425;52.126;20.638;2023-08-20T13:15:15;9.50;;;8.18;;
55993;SDS011;67425;52.126;20.638;2023-08-20T13:17:42;8.93;;;8.00;;
55993;SDS011;67425;52.126;20.638;2023-08-20T13:20:07;11.07;;;7.05;;
55993;SDS011;67425;52.126;20.638;2023-08-20T13:22:33;7.88;;;7.25;;
55993;SDS011;67425;52.126;20.638;2023-08-20T13:24:59;8.10;;;7.35;;
55993;SDS011;67425;52.126;20.638;2023-08-20T13:27:24;8.25;;;7.55;;
55993;SDS011;67425;52.126;20.638;2023-08-20T13:29:49;8.93;;;7.75;;
55993;SDS011;67425;52.126;20.638;2023-08-20T13:32:15;8.77;;;7.90;;
55993;SDS011;67425;52.126;20.638;2023-08-20T13:34:40;12.87;;;9.17;;
55993;SDS011;67425;52.126;20.638;2023-08-20T13:37:06;10.88;;;8.18;;
55993;SDS011;67425;52.126;20.638;2023-08-20T13:39:31;10.38;;;8.30;;
55993;SDS011;67425;52.126;20.638;2023-08-20T13:41:56;12.35;;;8.50;;
55993;SDS011;67425;52.126;20.638;2023-08-20T13:44:22;9.02;;;8.25;;
55993;SDS011;67425;52.126;20.638;2023-08-20T13:46:47;12.97;;;8.67;;
55993;SDS011;67425;52.126;20.638;2023-08-20T13:49:12;11.30;;;8.93;;
55993;SDS011;67425;52.126;20.638;2023-08-20T13:51:38;9.10;;;8.30;;
55993;SDS011;67425;52.126;20.638;2023-08-20T13:54:03;9.13;;;7.95;;
55993;SDS011;67425;52.126;20.638;2023-08-20T13:56:29;9.65;;;8.75;;
55993;SDS011;67425;52.126;20.638;2023-08-20T13:58:54;9.07;;;8.17;;
55993;SDS011;67425;52.126;20.638;2023-08-20T14:01:19;9.30;;;8.38;;
55993;SDS011;67425;52.126;20.638;2023-08-20T14:03:45;9.68;;;8.10;;
55993;SDS011;67425;52.126;20.638;2023-08-20T14:06:10;8.63;;;7.83;;
55993;SDS011;67425;52.126;20.638;2023-08-20T14:08:35;12.33;;;7.33;;
55993;SDS011;67425;52.126;20.638;2023-08-20T14:11:01;8.30;;;7.60;;
55993;SDS011;67425;52.126;20.638;2023-08-20T14:13:26;9.13;;;7.35;;
55993;SDS011;67425;52.126;20.638;2023-08-20T14:15:51;8.47;;;7.53;;
55993;SDS011;67425;52.126;20.638;2023-08-20T14:18:17;9.02;;;7.15;;
55993;SDS011;67425;52.126;20.638;2023-08-20T14:20:42;12.65;;;7.68;;
55993;SDS011;67425;52.126;20.638;2023-08-20T14:23:08;10.23;;;7.47;;
55993;SDS011;67425;52.126;20.638;2023-08-20T14:25:33;12.75;;;7.10;;
55993;SDS011;67425;52.126;20.638;2023-08-20T14:27:59;8.80;;;7.57;;